Time;durP1;ratioP1;P1;durP2;ratioP2;P2;SDS_P1;SDS_P2;PMS_P1;PMS_P2;Temp;Humidity;BMP_temperature;BMP_pressure;BME280_temperature;BME280_humidity;BME280_pressure;Samples;Min_cycle;Max_cycle;Signal;HPM_P1;HPM_P2
2021/03/29 00:00:40;;;;;;;56.97;10.90;;;;;;;6.41;94.87;101217.06;5090521;28;20066;-73
2021/03/29 00:03:05;;;;;;;54.50;12.93;;;;;;;6.45;94.71;101196.59;5089673;28;20512;-73
2021/03/29 00:05:32;;;;;;;52.63;13.02;;;;;;;6.45;94.80;101200.09;5090124;28;20031;-72
2021/03/29 00:08:02;;;;;;;71.25;14.50;;;;;;;6.48;95.01;101203.41;5089113;28;20039;-72
2021/03/29 00:10:28;;;;;;;68.53;13.07;;;;;;;6.49;94.94;101208.56;5074565;28;20016;-73
2021/03/29 00:12:53;;;;;;;80.70;16.02;;;;;;;6.50;94.93;101214.84;5089311;28;20389;-73
2021/03/29 00:15:21;;;;;;;56.80;14.57;;;;;;;6.52;95.00;101213.56;5073939;28;20024;-73
2021/03/29 00:17:47;;;;;;;57.92;12.65;;;;;;;6.51;94.92;101206.47;5073100;28;20435;-73
2021/03/29 00:20:18;;;;;;;65.25;13.57;;;;;;;6.50;94.95;101204.81;5090323;28;20043;-74
2021/03/29 00:22:43;;;;;;;70.50;14.38;;;;;;;6.48;94.81;101201.53;5073545;28;20077;-74
2021/03/29 00:25:18;;;;;;;68.28;13.93;;;;;;;6.48;95.08;101198.81;5089626;28;20024;-73
2021/03/29 00:27:44;;;;;;;64.55;13.18;;;;;;;6.50;95.07;101204.00;5074431;28;20031;-74
2021/03/29 00:30:15;;;;;;;74.22;15.20;;;;;;;6.51;95.16;101201.03;5088688;28;20032;-73
2021/03/29 00:32:41;;;;;;;88.20;16.60;;;;;;;6.50;94.84;101202.13;5072881;28;20042;-74
2021/03/29 00:35:06;;;;;;;73.65;15.32;;;;;;;6.50;94.91;101199.41;5070927;28;20078;-74
2021/03/29 00:37:33;;;;;;;87.47;18.65;;;;;;;6.49;95.15;101192.31;5073633;28;20477;-73
2021/03/29 00:39:58;;;;;;;87.45;17.73;;;;;;;6.49;95.14;101184.19;5089881;28;20040;-74
2021/03/29 00:42:24;;;;;;;77.57;15.82;;;;;;;6.48;94.93;101179.84;5089471;28;20032;-73
2021/03/29 00:44:49;;;;;;;86.40;18.63;;;;;;;6.49;95.28;101186.91;5089043;28;20028;-74
2021/03/29 00:47:15;;;;;;;79.78;18.27;;;;;;;6.51;95.29;101189.41;5091360;28;20027;-73
2021/03/29 00:49:40;;;;;;;78.32;16.70;;;;;;;6.50;95.16;101194.00;5072767;28;20051;-74
2021/03/29 00:52:06;;;;;;;108.95;20.65;;;;;;;6.50;94.99;101188.56;5079689;28;20025;-73
2021/03/29 00:54:31;;;;;;;104.97;19.13;;;;;;;6.50;95.15;101179.63;5072356;28;20024;-74
2021/03/29 00:56:57;;;;;;;84.82;16.90;;;;;;;6.48;95.10;101174.44;5090747;28;20425;-74
2021/03/29 00:59:22;;;;;;;97.90;17.42;;;;;;;6.49;94.84;101173.38;5089152;28;20335;-74
2021/03/29 01:01:48;;;;;;;107.35;19.60;;;;;;;6.49;95.18;101173.38;5073712;28;20028;-73
2021/03/29 01:04:14;;;;;;;103.10;17.80;;;;;;;6.48;95.24;101173.63;5085522;28;20032;-73
2021/03/29 01:06:41;;;;;;;102.50;19.27;;;;;;;6.47;95.13;101178.22;5089792;28;20130;-73
2021/03/29 01:09:15;;;;;;;90.10;18.00;;;;;;;6.46;95.24;101171.13;5072687;28;20035;-73
2021/03/29 01:11:42;;;;;;;76.47;19.23;;;;;;;6.47;94.77;101169.28;5057613;28;20111;-73
2021/03/29 01:14:18;;;;;;;86.90;17.25;;;;;;;6.45;95.01;101164.09;5088687;28;20063;-73
2021/03/29 01:17:12;;;;;;;68.15;17.98;;;;;;;6.45;95.16;101158.66;5090409;28;20030;-73
2021/03/29 01:19:52;;;;;;;66.70;16.88;;;;;;;6.47;95.08;101166.56;5078353;28;20222;-73
2021/03/29 01:22:20;;;;;;;66.63;16.30;;;;;;;6.48;94.98;101168.19;5070488;28;20028;-73
2021/03/29 01:24:49;;;;;;;65.00;15.43;;;;;;;6.49;95.00;101161.72;5071347;28;20024;-73
2021/03/29 01:27:16;;;;;;;64.90;15.07;;;;;;;6.50;95.06;101172.31;5087755;28;20028;-73
2021/03/29 01:29:42;;;;;;;64.47;15.30;;;;;;;6.50;95.11;101188.56;5088849;28;20504;-73
2021/03/29 01:32:07;;;;;;;66.10;15.50;;;;;;;6.50;94.98;101183.16;5091912;28;20040;-73
2021/03/29 01:34:35;;;;;;;64.22;14.75;;;;;;;6.49;95.02;101170.66;5074672;28;20036;-73
2021/03/29 01:37:01;;;;;;;69.72;13.73;;;;;;;6.47;94.92;101172.81;5091250;28;20045;-73
2021/03/29 01:39:26;;;;;;;53.42;12.38;;;;;;;6.47;95.09;101161.97;5094043;28;20024;-73
2021/03/29 01:41:52;;;;;;;57.00;13.57;;;;;;;6.46;95.17;101160.31;5075955;28;20040;-73
2021/03/29 01:44:17;;;;;;;54.78;13.65;;;;;;;6.46;95.47;101157.59;5093176;28;20084;-73
2021/03/29 01:46:43;;;;;;;59.63;13.27;;;;;;;6.45;95.18;101158.66;5092872;28;20069;-74
2021/03/29 01:49:08;;;;;;;61.15;14.13;;;;;;;6.45;95.25;101147.84;5092552;28;20058;-73
2021/03/29 01:51:34;;;;;;;45.35;12.38;;;;;;;6.47;95.21;101145.72;5075249;28;20028;-73
2021/03/29 01:53:59;;;;;;;51.85;14.55;;;;;;;6.47;95.35;101132.16;5088458;28;20027;-73
2021/03/29 01:56:25;;;;;;;72.00;14.77;;;;;;;6.48;95.17;101147.34;5076394;28;20016;-73
2021/03/29 01:58:50;;;;;;;51.72;13.13;;;;;;;6.47;95.36;101139.47;5093090;28;20028;-73
2021/03/29 02:01:15;;;;;;;56.97;13.77;;;;;;;6.47;95.17;101136.78;5091026;28;20362;-73
2021/03/29 02:03:43;;;;;;;61.78;15.20;;;;;;;6.47;95.51;101131.34;5092803;28;20028;-73
2021/03/29 02:06:08;;;;;;;66.40;16.13;;;;;;;6.47;95.02;101134.06;5094096;28;20077;-73
2021/03/29 02:08:34;;;;;;;61.28;16.33;;;;;;;6.47;95.41;101124.06;5091020;28;20020;-73
2021/03/29 02:11:00;;;;;;;54.17;13.88;;;;;;;6.48;95.48;101122.16;5093137;28;20028;-73
2021/03/29 02:13:33;;;;;;;67.43;14.05;;;;;;;6.48;95.17;101122.97;5075857;28;20020;-73
2021/03/29 02:16:03;;;;;;;60.40;14.95;;;;;;;6.47;95.36;101107.78;5093196;28;20036;-73
2021/03/29 02:18:31;;;;;;;55.47;13.07;;;;;;;6.48;95.41;101106.72;5069043;28;20020;-73
2021/03/29 02:21:00;;;;;;;53.63;13.27;;;;;;;6.50;95.32;101101.09;5093081;28;20023;-74
2021/03/29 02:23:25;;;;;;;55.70;13.75;;;;;;;6.50;95.23;101099.19;5074938;28;20081;-73
2021/03/29 02:25:51;;;;;;;69.50;14.98;;;;;;;6.52;95.31;101104.34;5084043;28;20020;-74
2021/03/29 02:28:16;;;;;;;54.97;14.60;;;;;;;6.53;95.62;101092.47;5092219;28;20078;-74
2021/03/29 02:30:43;;;;;;;48.20;12.90;;;;;;;6.53;95.43;101090.59;5092667;28;20400;-74
2021/03/29 02:33:13;;;;;;;56.92;13.85;;;;;;;6.55;95.61;101093.06;5084684;28;20033;-74
2021/03/29 02:35:39;;;;;;;50.00;14.30;;;;;;;6.57;95.43;101094.44;5093027;28;20020;-74
2021/03/29 02:38:06;;;;;;;45.92;13.02;;;;;;;6.58;95.67;101089.88;5092363;28;20031;-74
2021/03/29 02:40:31;;;;;;;49.25;12.43;;;;;;;6.58;95.58;101087.16;5093612;28;20051;-74
2021/03/29 02:42:57;;;;;;;51.10;13.35;;;;;;;6.59;95.51;101081.50;5090825;28;20036;-74
2021/03/29 02:45:27;;;;;;;41.97;13.07;;;;;;;6.59;95.73;101089.63;5090394;28;20020;-74
2021/03/29 02:47:54;;;;;;;58.65;13.85;;;;;;;6.59;95.51;101084.19;5091015;28;20579;-74
2021/03/29 02:50:21;;;;;;;48.70;13.65;;;;;;;6.61;95.53;101079.38;5092955;28;20396;-74
2021/03/29 02:52:48;;;;;;;52.65;11.43;;;;;;;6.61;95.64;101078.56;5092347;28;20461;-74
2021/03/29 02:55:14;;;;;;;57.25;13.55;;;;;;;6.62;95.78;101072.88;5071087;28;20105;-74
2021/03/29 02:57:42;;;;;;;49.25;11.68;;;;;;;6.63;95.68;101085.38;5069045;28;20406;-74
2021/03/29 03:00:12;;;;;;;58.35;13.70;;;;;;;6.63;95.88;101071.84;5092418;28;20028;-74
2021/03/29 03:02:40;;;;;;;45.97;12.52;;;;;;;6.63;95.56;101074.53;5092494;28;20024;-74
2021/03/29 03:05:06;;;;;;;60.97;14.18;;;;;;;6.65;95.67;101066.97;5092156;28;20031;-75
2021/03/29 03:07:32;;;;;;;40.45;12.18;;;;;;;6.67;95.63;101053.19;5091500;28;20152;-74
2021/03/29 03:09:57;;;;;;;50.58;12.48;;;;;;;6.69;95.87;101055.69;5091941;28;20092;-74
2021/03/29 03:12:23;;;;;;;50.42;11.80;;;;;;;6.71;95.77;101050.81;5072278;28;20036;-74
2021/03/29 03:14:48;;;;;;;45.03;11.25;;;;;;;6.72;96.06;101060.63;5090053;28;20453;-74
2021/03/29 03:17:14;;;;;;;48.35;13.77;;;;;;;6.74;96.12;101055.75;5073862;28;20016;-74
2021/03/29 03:19:39;;;;;;;47.67;11.68;;;;;;;6.77;95.79;101052.59;5091143;28;20028;-74
2021/03/29 03:22:04;;;;;;;45.80;12.80;;;;;;;6.79;95.98;101066.69;5090748;28;20031;-73
2021/03/29 03:24:34;;;;;;;54.45;14.43;;;;;;;6.81;95.94;101053.75;5074801;28;20504;-74
2021/03/29 03:27:07;;;;;;;51.65;13.27;;;;;;;6.80;96.21;101044.78;5073217;28;20040;-73
2021/03/29 03:29:37;;;;;;;40.13;13.65;;;;;;;6.82;95.74;101047.25;5085467;28;20027;-73
2021/03/29 03:32:03;;;;;;;54.80;13.35;;;;;;;6.82;96.09;101055.38;5090588;28;20408;-74
2021/03/29 03:34:28;;;;;;;41.50;10.55;;;;;;;6.83;96.17;101036.16;5082394;28;20059;-74
2021/03/29 03:36:54;;;;;;;56.78;13.85;;;;;;;6.85;96.09;101047.59;5085506;28;20028;-73
2021/03/29 03:39:19;;;;;;;33.40;9.57;;;;;;;6.85;95.96;101038.66;5088609;28;20477;-74
2021/03/29 03:41:45;;;;;;;40.30;12.15;;;;;;;6.85;95.85;101046.78;5085819;28;20051;-73
2021/03/29 03:44:10;;;;;;;52.25;12.88;;;;;;;6.85;96.02;101038.66;5069049;28;20032;-74
2021/03/29 03:46:39;;;;;;;38.67;9.63;;;;;;;6.85;96.14;101034.03;5091366;28;20020;-73
2021/03/29 03:49:11;;;;;;;44.78;11.10;;;;;;;6.87;96.08;101039.22;5069462;28;20063;-73
2021/03/29 03:51:37;;;;;;;41.00;10.65;;;;;;;6.86;96.07;101051.13;5073159;28;20504;-73
2021/03/29 03:54:03;;;;;;;49.42;11.10;;;;;;;6.87;96.16;101044.63;5071292;28;20027;-73
2021/03/29 03:56:34;;;;;;;42.05;11.65;;;;;;;6.88;96.23;101038.16;5064304;28;20039;-73
2021/03/29 03:59:00;;;;;;;41.28;11.70;;;;;;;6.89;96.13;101037.09;5089450;28;20024;-73
2021/03/29 04:01:25;;;;;;;43.00;9.73;;;;;;;6.89;95.87;101034.38;5089781;28;20024;-73
2021/03/29 04:03:51;;;;;;;49.40;9.52;;;;;;;6.88;96.02;101027.31;5090311;28;20385;-73
2021/03/29 04:06:17;;;;;;;43.90;10.15;;;;;;;6.90;96.13;101025.16;5089569;28;20020;-73
2021/03/29 04:08:44;;;;;;;41.08;9.95;;;;;;;6.89;95.92;101029.78;5091255;28;20500;-73
2021/03/29 04:11:11;;;;;;;51.40;10.75;;;;;;;6.92;95.77;101023.03;5072003;28;20035;-73
2021/03/29 04:13:36;;;;;;;55.63;11.18;;;;;;;6.91;96.20;101018.69;5090587;28;20096;-73
2021/03/29 04:16:05;;;;;;;37.15;9.43;;;;;;;6.92;95.86;101020.34;5091114;28;20055;-74
2021/03/29 04:18:30;;;;;;;43.35;10.20;;;;;;;6.93;95.85;101019.28;5089852;28;20381;-73
2021/03/29 04:20:57;;;;;;;38.42;10.52;;;;;;;6.94;95.83;101029.06;5091309;28;20027;-74
2021/03/29 04:23:23;;;;;;;44.78;11.02;;;;;;;6.92;96.05;101014.91;5088449;28;20432;-74
2021/03/29 04:25:49;;;;;;;50.25;10.02;;;;;;;6.93;96.19;101013.03;5067833;28;20539;-74
2021/03/29 04:28:14;;;;;;;39.33;9.98;;;;;;;6.93;96.19;101016.56;5084307;28;20020;-74
2021/03/29 04:30:39;;;;;;;48.13;11.65;;;;;;;6.91;96.11;101013.28;5090705;28;20024;-74
2021/03/29 04:33:05;;;;;;;40.67;11.02;;;;;;;6.91;96.29;100999.72;5088897;28;20024;-74
2021/03/29 04:35:31;;;;;;;57.40;14.20;;;;;;;6.92;95.96;101001.38;5088246;28;20389;-73
2021/03/29 04:37:56;;;;;;;50.03;10.82;;;;;;;6.91;96.28;101010.56;5089275;28;20031;-73
2021/03/29 04:40:23;;;;;;;41.05;11.05;;;;;;;6.92;96.21;101001.38;5091121;28;20024;-73
2021/03/29 04:42:49;;;;;;;39.08;9.85;;;;;;;6.96;96.31;101024.22;5089544;28;20075;-73
2021/03/29 04:45:15;;;;;;;51.55;10.25;;;;;;;6.94;96.36;100999.25;5090708;28;20024;-73
2021/03/29 04:47:40;;;;;;;38.38;10.68;;;;;;;6.92;96.12;101012.19;5090202;28;20028;-73
2021/03/29 04:50:06;;;;;;;55.08;11.70;;;;;;;6.91;96.14;101021.41;5090859;28;20039;-73
2021/03/29 04:52:32;;;;;;;49.83;11.80;;;;;;;6.91;96.24;101007.03;5089219;28;20056;-73
2021/03/29 04:54:57;;;;;;;59.60;11.73;;;;;;;6.88;96.50;101002.94;5087778;28;20473;-73
2021/03/29 04:57:23;;;;;;;43.40;9.93;;;;;;;6.88;96.50;101005.63;5090320;28;20024;-73
2021/03/29 04:59:48;;;;;;;44.97;11.13;;;;;;;6.88;96.19;101000.22;5089857;28;20047;-73
2021/03/29 05:02:13;;;;;;;50.03;10.60;;;;;;;6.86;96.60;101000.44;5089269;28;20080;-73
2021/03/29 05:04:39;;;;;;;33.38;7.78;;;;;;;6.87;96.51;101001.25;5080429;28;20381;-73
2021/03/29 05:07:11;;;;;;;46.03;10.55;;;;;;;6.87;96.25;101001.25;5094521;28;20036;-73
2021/03/29 05:09:37;;;;;;;49.83;11.02;;;;;;;6.88;96.31;101005.63;5085590;28;20107;-73
2021/03/29 05:12:15;;;;;;;68.13;13.82;;;;;;;6.89;96.63;101007.28;5093929;28;20522;-73
2021/03/29 05:14:41;;;;;;;48.85;11.32;;;;;;;6.90;96.75;101014.31;5092382;28;20481;-73
2021/03/29 05:17:08;;;;;;;53.63;12.20;;;;;;;6.89;96.40;101009.97;5092906;28;20032;-73
2021/03/29 05:19:33;;;;;;;36.17;9.45;;;;;;;6.90;96.32;101014.31;5093692;28;20031;-73
2021/03/29 05:21:59;;;;;;;32.97;8.23;;;;;;;6.88;96.24;101019.19;5094356;28;20042;-73
2021/03/29 05:24:25;;;;;;;38.08;10.07;;;;;;;6.87;96.50;101021.09;5093807;28;20028;-73
2021/03/29 05:26:50;;;;;;;46.67;10.48;;;;;;;6.87;96.62;101031.06;5092971;28;20376;-75
2021/03/29 05:29:16;;;;;;;45.38;11.18;;;;;;;6.86;96.47;101032.16;5091588;28;20024;-72
2021/03/29 05:31:41;;;;;;;52.20;12.30;;;;;;;6.85;96.57;101025.09;5092198;28;21037;-73
2021/03/29 05:34:08;;;;;;;39.63;12.10;;;;;;;6.85;96.52;101017.78;5090844;28;20028;-72
2021/03/29 05:36:33;;;;;;;44.72;12.75;;;;;;;6.84;96.52;101035.09;5093010;28;20028;-72
2021/03/29 05:38:59;;;;;;;62.20;12.90;;;;;;;6.85;96.57;101041.34;5090631;28;21580;-75
2021/03/29 05:41:24;;;;;;;34.50;10.85;;;;;;;6.84;96.33;101042.41;5095143;28;20051;-72
2021/03/29 05:43:50;;;;;;;43.03;10.88;;;;;;;6.83;96.67;101030.75;5073558;28;20032;-72
2021/03/29 05:46:15;;;;;;;62.95;13.77;;;;;;;6.82;96.68;101041.81;5077387;28;20069;-75
2021/03/29 05:48:40;;;;;;;47.65;11.48;;;;;;;6.82;96.70;101045.38;5058268;28;20028;-73
2021/03/29 05:51:11;;;;;;;45.95;13.02;;;;;;;6.82;96.74;101034.53;5092391;28;20057;-73
2021/03/29 05:53:36;;;;;;;67.05;15.63;;;;;;;6.82;96.46;101044.53;5076176;28;20022;-72
2021/03/29 05:56:06;;;;;;;40.75;10.95;;;;;;;6.82;96.68;101044.53;5092471;28;20039;-73
2021/03/29 05:58:39;;;;;;;63.55;14.48;;;;;;;6.80;96.40;101041.25;5092599;28;20122;-73
2021/03/29 06:01:04;;;;;;;48.28;11.98;;;;;;;6.82;96.87;101045.38;5093620;28;20081;-73
2021/03/29 06:03:40;;;;;;;52.72;12.70;;;;;;;6.82;96.84;101047.25;5088952;28;20024;-73
2021/03/29 06:06:14;;;;;;;57.42;13.60;;;;;;;6.79;96.47;101050.44;5093913;28;20093;-74
2021/03/29 06:08:47;;;;;;;47.38;13.23;;;;;;;6.78;96.59;101048.81;5087800;28;20024;-73
2021/03/29 06:11:28;;;;;;;57.53;12.95;;;;;;;6.76;96.80;101034.66;5093145;28;20107;-74
2021/03/29 06:14:11;;;;;;;67.23;15.23;;;;;;;6.73;96.91;101040.56;5086201;28;20102;-73
2021/03/29 06:17:05;;;;;;;36.75;10.02;;;;;;;6.72;96.51;101033.53;5089668;28;20380;-74
2021/03/29 06:19:48;;;;;;;57.00;12.82;;;;;;;6.70;96.73;101041.06;5086809;28;20024;-74
2021/03/29 06:22:14;;;;;;;48.33;12.27;;;;;;;6.71;96.94;101037.28;5072947;28;20047;-74
2021/03/29 06:25:05;;;;;;;52.50;12.57;;;;;;;6.73;96.67;101037.88;5087872;28;20032;-74
2021/03/29 06:27:41;;;;;;;39.20;10.35;;;;;;;6.77;96.91;101042.56;5084871;28;20020;-74
2021/03/29 06:30:18;;;;;;;42.40;11.55;;;;;;;6.76;96.92;101061.75;5083343;28;20580;-74
2021/03/29 06:33:00;;;;;;;49.35;11.60;;;;;;;6.77;96.70;101056.13;5071211;28;20512;-73
2021/03/29 06:35:45;;;;;;;54.33;14.07;;;;;;;6.77;97.07;101063.44;5078837;28;20032;-74
2021/03/29 06:38:17;;;;;;;34.40;9.63;;;;;;;6.79;96.98;101051.28;5083053;28;20026;-75
2021/03/29 06:40:46;;;;;;;;;;;;;;;6.80;97.13;101058.34;5082442;28;20048;-75
2021/03/29 06:43:25;;;;;;;41.25;10.93;;;;;;;6.80;96.75;101050.22;5087428;28;19911;-76
2021/03/29 06:46:04;;;;;;;43.33;12.68;;;;;;;6.79;96.75;101050.44;5088229;28;20035;-76
2021/03/29 06:48:37;;;;;;;47.97;12.38;;;;;;;6.78;97.08;101055.03;5083261;28;20020;-76
2021/03/29 06:51:05;;;;;;;38.83;13.25;;;;;;;6.79;97.17;101056.69;5088071;28;20055;-75
2021/03/29 06:53:31;;;;;;;44.35;10.98;;;;;;;6.78;97.14;101055.03;5092191;28;20040;-75
2021/03/29 06:55:58;;;;;;;34.55;10.50;;;;;;;6.76;96.80;101056.34;5072713;28;20039;-74
2021/03/29 06:58:25;;;;;;;40.63;10.50;;;;;;;6.76;96.93;101064.47;5092347;28;20024;-75
2021/03/29 07:00:53;;;;;;;30.98;10.00;;;;;;;6.78;97.24;101067.78;5083024;28;20028;-76
2021/03/29 07:03:19;;;;;;;38.35;12.60;;;;;;;6.81;97.05;101067.28;5091943;28;20023;-76
2021/03/29 07:05:44;;;;;;;27.38;8.30;;;;;;;6.82;97.36;101072.47;5087593;28;20024;-76
2021/03/29 07:08:10;;;;;;;32.10;11.02;;;;;;;6.85;97.39;101063.03;5091443;28;20487;-77
2021/03/29 07:10:35;;;;;;;44.42;11.75;;;;;;;6.85;97.30;101068.47;5070690;28;20025;-75
2021/03/29 07:13:01;;;;;;;44.03;13.48;;;;;;;6.87;97.11;101074.44;5093458;28;20027;-74
2021/03/29 07:15:26;;;;;;;43.97;11.25;;;;;;;6.86;97.12;101073.63;5074009;28;20473;-75
2021/03/29 07:17:52;;;;;;;43.40;12.02;;;;;;;6.85;97.09;101076.59;5092234;28;20024;-74
2021/03/29 07:20:24;;;;;;;54.63;14.73;;;;;;;6.86;97.31;101067.38;5083106;28;20028;-75
2021/03/29 07:22:49;;;;;;;30.35;10.05;;;;;;;6.85;96.81;101071.16;5072788;28;20088;-74
2021/03/29 07:25:15;;;;;;;54.97;13.65;;;;;;;6.84;97.39;101064.09;5084562;28;20032;-74
2021/03/29 07:27:51;;;;;;;43.80;14.15;;;;;;;6.84;96.98;101069.50;5089603;28;20031;-74
2021/03/29 07:30:18;;;;;;;34.13;10.88;;;;;;;6.82;97.36;101066.22;5104647;28;20201;-74
2021/03/29 07:32:53;;;;;;;65.28;14.52;;;;;;;6.81;97.34;101075.41;5089704;28;20481;-75
2021/03/29 07:35:20;;;;;;;56.42;14.43;;;;;;;6.81;97.08;101075.41;5090532;28;20024;-74
2021/03/29 07:37:56;;;;;;;37.00;12.52;;;;;;;6.82;97.29;101074.34;5090093;28;20028;-74
2021/03/29 07:40:22;;;;;;;36.92;11.07;;;;;;;6.83;97.17;101100.41;5085854;28;20054;-73
2021/03/29 07:42:51;;;;;;;62.08;14.63;;;;;;;6.83;97.23;101079.53;5085352;28;20028;-74
2021/03/29 07:45:18;;;;;;;41.70;12.45;;;;;;;6.83;96.97;101089.56;5084040;28;20475;-73
2021/03/29 07:47:52;;;;;;;55.70;14.70;;;;;;;6.81;96.99;101086.25;5084986;28;20025;-73
2021/03/29 07:50:18;;;;;;;49.22;13.63;;;;;;;6.83;97.30;101073.28;5090093;28;20027;-74
2021/03/29 07:52:48;;;;;;;52.90;13.85;;;;;;;6.83;96.99;101084.13;5083088;28;20084;-73
2021/03/29 07:55:22;;;;;;;72.35;15.18;;;;;;;6.82;97.29;101077.03;5088584;28;20024;-73
2021/03/29 07:57:50;;;;;;;52.25;13.13;;;;;;;6.84;97.42;101085.75;5088843;28;20437;-73
2021/03/29 08:00:27;;;;;;;53.40;14.98;;;;;;;6.84;97.26;101088.47;5085121;28;20044;-74
2021/03/29 08:02:59;;;;;;;52.47;13.88;;;;;;;6.84;97.25;101096.59;5083867;28;20032;-73
2021/03/29 08:05:43;;;;;;;58.70;12.87;;;;;;;6.84;97.33;101091.19;5086099;28;20092;-75
2021/03/29 08:08:27;;;;;;;77.38;16.95;;;;;;;6.87;97.29;101101.53;5085603;28;20036;-76
2021/03/29 08:10:59;;;;;;;57.97;15.38;;;;;;;6.91;97.39;101118.16;5085423;28;20111;-74
2021/03/29 08:13:42;;;;;;;41.55;13.25;;;;;;;6.92;97.22;101101.66;5089003;28;20016;-72
2021/03/29 08:16:17;;;;;;;44.55;13.40;;;;;;;6.94;97.31;101107.66;5089482;28;20028;-72
2021/03/29 08:19:11;;;;;;;37.50;10.57;;;;;;;6.93;97.04;101108.72;5086914;28;20020;-72
2021/03/29 08:22:04;;;;;;;41.53;11.13;;;;;;;6.93;97.42;101116.88;5089855;28;20411;-72
2021/03/29 08:24:43;;;;;;;55.28;14.05;;;;;;;6.95;97.19;101119.31;5089211;28;20097;-71
2021/03/29 08:27:15;;;;;;;44.95;13.07;;;;;;;6.95;97.36;101125.56;5085925;28;20020;-71
2021/03/29 08:29:42;;;;;;;49.80;13.23;;;;;;;6.94;97.33;101134.75;5082580;28;20077;-71
2021/03/29 08:32:19;;;;;;;47.85;12.27;;;;;;;6.95;97.31;101124.72;5088282;28;20031;-70
2021/03/29 08:34:44;;;;;;;54.25;14.98;;;;;;;6.96;97.46;101146.19;5088581;28;20028;-71
2021/03/29 08:37:11;;;;;;;51.55;13.13;;;;;;;6.95;97.59;101130.97;5084326;28;20024;-70
2021/03/29 08:39:39;;;;;;;48.50;11.20;;;;;;;6.95;97.50;101144.53;5084967;28;20481;-71
2021/03/29 08:42:04;;;;;;;53.88;13.80;;;;;;;6.96;97.64;101148.91;5084564;28;20142;-71
2021/03/29 08:44:30;;;;;;;62.65;12.95;;;;;;;6.95;97.33;101132.88;5087094;28;20100;-71
2021/03/29 08:46:56;;;;;;;49.58;10.82;;;;;;;6.94;97.37;101142.88;5068663;28;20474;-71
2021/03/29 08:49:23;;;;;;;59.10;14.23;;;;;;;6.92;97.53;101136.06;5069660;28;20032;-71
2021/03/29 08:51:50;;;;;;;57.35;12.68;;;;;;;6.92;97.29;101147.72;5081683;28;20016;-71
2021/03/29 08:54:15;;;;;;;54.33;11.88;;;;;;;6.93;97.26;101160.22;5088753;28;20174;-70
2021/03/29 08:56:41;;;;;;;61.78;15.10;;;;;;;6.92;97.28;101153.16;5082062;28;20147;-71
2021/03/29 08:59:07;;;;;;;62.42;14.77;;;;;;;6.92;97.60;101147.72;5079176;28;20032;-71
2021/03/29 09:01:33;;;;;;;56.13;14.55;;;;;;;6.91;97.44;101151.50;5085935;28;20020;-70
2021/03/29 09:04:03;;;;;;;59.63;14.90;;;;;;;6.93;97.64;101153.97;5084811;28;20027;-71
2021/03/29 09:06:28;;;;;;;42.78;10.00;;;;;;;6.93;97.47;101154.81;5085531;28;20115;-71
2021/03/29 09:08:54;;;;;;;56.92;14.15;;;;;;;6.95;97.15;101149.94;5066796;28;20139;-71
2021/03/29 09:11:20;;;;;;;48.28;11.38;;;;;;;6.97;97.30;101161.38;5082898;28;20020;-71
2021/03/29 09:13:45;;;;;;;59.38;13.85;;;;;;;6.98;97.37;101163.00;5086510;28;20377;-71
2021/03/29 09:16:11;;;;;;;42.72;11.10;;;;;;;7.01;97.41;101167.13;5068384;28;20027;-71
2021/03/29 09:18:36;;;;;;;53.22;13.32;;;;;;;7.03;97.34;101165.84;5087022;28;20032;-71
2021/03/29 09:21:01;;;;;;;44.60;11.73;;;;;;;7.07;97.38;101171.63;5084754;28;20028;-71
2021/03/29 09:23:32;;;;;;;48.38;12.48;;;;;;;7.08;97.20;101163.22;5085457;28;20038;-71
2021/03/29 09:26:02;;;;;;;62.92;13.88;;;;;;;7.10;97.08;101171.94;5089212;28;20047;-71
2021/03/29 09:30:57;;;;;;;47.38;14.18;;;;;;;7.09;97.41;101180.31;5088296;28;20027;-70
2021/03/29 09:33:22;;;;;;;57.60;13.70;;;;;;;7.09;97.11;101167.59;5086837;28;20412;-71
2021/03/29 09:35:48;;;;;;;47.80;11.93;;;;;;;7.07;97.29;101164.31;5087484;28;20035;-71
2021/03/29 09:38:14;;;;;;;72.28;14.88;;;;;;;7.04;97.12;101170.22;5085026;28;20113;-71
2021/03/29 09:40:40;;;;;;;52.65;12.07;;;;;;;7.01;97.32;101181.53;5087835;28;20533;-71
2021/03/29 09:43:05;;;;;;;49.95;12.85;;;;;;;7.01;97.21;101184.25;5086515;28;20299;-71
2021/03/29 09:45:32;;;;;;;72.57;14.85;;;;;;;6.98;97.20;101184.69;5081629;28;20436;-71
2021/03/29 09:48:08;;;;;;;62.95;15.52;;;;;;;6.96;97.19;101192.28;5086492;28;20028;-71
2021/03/29 09:50:44;;;;;;;36.88;9.73;;;;;;;6.98;97.33;101198.25;5052478;28;20567;-72
2021/03/29 09:53:22;;;;;;;40.05;10.32;;;;;;;6.99;97.37;101205.34;5091443;28;20058;-72
2021/03/29 09:55:52;;;;;;;54.05;12.43;;;;;;;7.00;97.33;101208.88;5093040;28;20028;-71
2021/03/29 09:58:23;;;;;;;56.88;12.48;;;;;;;7.00;97.43;101206.97;5092137;28;20031;-73
2021/03/29 10:00:49;;;;;;;55.72;12.18;;;;;;;7.02;97.28;101207.56;5084096;28;20397;-72
2021/03/29 10:03:17;;;;;;;64.47;14.55;;;;;;;7.08;97.49;101216.63;5089418;28;20515;-72
2021/03/29 10:05:42;;;;;;;60.03;12.73;;;;;;;7.14;97.22;101214.84;5094570;28;20069;-72
2021/03/29 10:08:08;;;;;;;83.55;14.82;;;;;;;7.18;97.28;101216.03;5091457;28;20028;-72
2021/03/29 10:10:33;;;;;;;43.17;11.48;;;;;;;7.24;97.42;101215.88;5088090;28;20441;-72
2021/03/29 10:13:12;;;;;;;64.78;13.07;;;;;;;7.25;97.39;101211.28;5090423;28;20696;-72
2021/03/29 10:15:39;;;;;;;52.78;12.77;;;;;;;7.25;97.18;101222.94;5090067;28;20032;-72
2021/03/29 10:18:11;;;;;;;60.38;14.32;;;;;;;7.23;96.97;101225.09;5089137;28;20027;-72
2021/03/29 10:20:37;;;;;;;53.60;12.43;;;;;;;7.23;96.97;101224.25;5089346;28;20020;-72
2021/03/29 10:23:23;;;;;;;58.45;11.73;;;;;;;7.22;96.92;101238.88;5090021;28;20119;-72
2021/03/29 10:26:11;;;;;;;62.38;13.25;;;;;;;7.17;97.20;101226.03;5052480;28;20055;-73
2021/03/29 10:28:37;;;;;;;59.67;12.45;;;;;;;7.17;96.91;101215.19;5074144;28;20141;-72
2021/03/29 10:31:03;;;;;;;58.58;14.07;;;;;;;7.19;97.33;101213.06;5082453;28;20032;-72
2021/03/29 10:33:28;;;;;;;73.57;13.07;;;;;;;7.24;96.97;101220.47;5084973;28;20089;-74
2021/03/29 10:35:53;;;;;;;60.42;12.10;;;;;;;7.26;97.02;101219.19;5089328;28;20035;-73
2021/03/29 10:38:19;;;;;;;63.55;13.18;;;;;;;7.24;97.01;101221.31;5080557;28;20074;-73
2021/03/29 10:40:44;;;;;;;55.63;12.77;;;;;;;7.23;97.03;101235.09;5072938;28;20052;-73
2021/03/29 10:43:10;;;;;;;64.85;13.98;;;;;;;7.20;97.24;101227.44;5093077;28;20507;-74
2021/03/29 10:45:36;;;;;;;55.88;11.88;;;;;;;7.18;97.03;101226.88;5074978;28;20016;-74
2021/03/29 10:48:01;;;;;;;54.03;10.85;;;;;;;7.18;97.03;101227.69;5091065;28;20028;-74
2021/03/29 10:50:26;;;;;;;49.22;11.45;;;;;;;7.20;97.13;101235.56;5084128;28;20028;-74
2021/03/29 10:52:52;;;;;;;54.28;11.95;;;;;;;7.20;97.25;101236.41;5087927;28;20032;-73
2021/03/29 10:55:19;;;;;;;56.95;12.35;;;;;;;7.23;97.18;101226.94;5079696;28;20032;-73
2021/03/29 10:57:45;;;;;;;58.40;11.90;;;;;;;7.29;97.43;101229.53;5088383;28;20531;-73
2021/03/29 11:00:11;;;;;;;58.83;11.82;;;;;;;7.42;97.30;101222.16;5083563;28;20036;-73
2021/03/29 11:02:37;;;;;;;35.90;10.85;;;;;;;7.53;97.41;101214.00;5084427;28;20047;-72
2021/03/29 11:05:06;;;;;;;44.47;10.75;;;;;;;7.63;97.40;101228.81;5074178;28;20032;-72
2021/03/29 11:07:32;;;;;;;53.08;11.80;;;;;;;7.62;96.98;101232.59;5089490;28;20024;-73
2021/03/29 11:09:58;;;;;;;41.35;10.23;;;;;;;7.64;96.98;101241.31;5089438;28;20538;-72
2021/03/29 11:12:23;;;;;;;46.60;9.90;;;;;;;7.65;96.82;101251.94;5087383;28;20035;-72
2021/03/29 11:14:48;;;;;;;41.25;9.73;;;;;;;7.62;96.62;101244.28;5073027;28;20389;-72
2021/03/29 11:17:14;;;;;;;45.60;10.75;;;;;;;7.63;96.93;101247.81;5092968;28;20036;-72
2021/03/29 11:19:39;;;;;;;34.28;8.40;;;;;;;7.64;96.58;101246.72;5086958;28;20036;-72
2021/03/29 11:22:05;;;;;;;26.73;7.80;;;;;;;7.61;96.41;101252.66;5091927;28;20381;-72
2021/03/29 11:24:30;;;;;;;40.00;10.55;;;;;;;7.55;96.22;101252.53;5086424;28;20299;-72